WIDN/TNJ METAR and TAF weather

Enter ICAO airport designator
Station Type Date Time Source
WIDN METAR 2022/08/12 10:30 UTC NOAA

WIDN 121030Z 11003KT 9000 FEW017 26/24 Q1007 NOSIG


Station Type Date Time Source
WIDN Decoded METAR 2022/08/12 10:30 UTC NOAA

Station name not available
Aug 12, 2022 - 06:30 AM EDT / 2022.08.12 1030 UTC
Wind: from the ESE (110 degrees) at 3 MPH (3 KT):0
Visibility: 5 mile(s):0
Sky conditions: mostly clear
Temperature: 78 F (26 C)
Dew Point: 75 F (24 C)
Relative Humidity: 88%
Pressure (altimeter): 29.74 in. Hg (1007 hPa)
ob: WIDN 121030Z 11003KT 9000 FEW017 26/24 Q1007 NOSIG
cycle: 10

Station Type Date Time Source
WIDN TAF 2011/04/08 06:00 UTC NOAA

TAF WIDN 080500Z 0806/0818 04010KT 9000 SCT020
BECMG 35010KT

Example: see airport list